PWSweather.com
Personal Weather Stations
Station Observations
ESTFIQ
Santa Fe, Santa FeAR 3000

Santa FeSanta FeAR 3000

Lat: -31.637, Lon: -60.708

Elevation: 69

Station Type: WH-1081

http://galileo4.unl.edu.ar/estacion

Latest ConditionsUpdated 8:55:01 AM GMT-03:57 Sunday, Mar 24, 2019
Currently Today's Max Today's Min Today's Average
Temperature 72.7°F22.6°C 72.7°F22.6°C 66.4°F19.1°C 68.9°F20.5°C
Dew Point 57.6°F14.2°C 60.7°F15.9°C 56.6°F13.7°C 58.6°F14.8°C
Winds 1.6 mph WSW2.6 kmh WSW 10.7 mph -17.2 kmh - - 3.4 mph 5.5 kmh
Wind Gusts 3.8 mph6.1 kmh 13.0 mph20.9 kmh - -
Humidity 59% 77% 59% 70%
Pressure 29.96 in1014.6 mb 29.96 in1014.6 mb 29.87 in1011.5 mb -
Hour Temp Dew Point Humidity Winds Wind Gusts Pressure Precip Precip Rate Daily Precip Total
08:55 AM 72.7°F22.6°C 57.6°F14.2°C 59% 1.6 mph WSW2.6 kmh WSW 3.8 mph6.1 kmh 29.96 in1014.6 mb 0.00 in0.0 mm 0.00 in0.0 mm 0.00 in0.0 mm
08:50 AM 72.7°F22.6°C 57.6°F14.2°C 59% 0.7 mph WSW1.1 kmh WSW 3.8 mph6.1 kmh 29.95 in1014.2 mb 0.00 in0.0 mm 0.00 in0.0 mm 0.00 in0.0 mm
08:45 AM 71.2°F21.8°C 57.1°F13.9°C 61% 0.7 mph SW1.1 kmh SW 3.1 mph5.0 kmh 29.95 in1014.2 mb 0.00 in0.0 mm 0.00 in0.0 mm 0.00 in0.0 mm
08:40 AM 71.2°F21.8°C 57.6°F14.2°C 62% 0.7 mph WSW1.1 kmh WSW 4.5 mph7.2 kmh 29.94 in1013.9 mb 0.00 in0.0 mm 0.00 in0.0 mm 0.00 in0.0 mm
08:35 AM 70.5°F21.4°C 56.9°F13.8°C 62% 0.7 mph W1.1 kmh W 5.4 mph8.7 kmh 29.95 in1014.2 mb 0.00 in0.0 mm 0.00 in0.0 mm 0.00 in0.0 mm
08:30 AM 70.3°F21.3°C 57.2°F14.0°C 63% Calm Calm 5.4 mph8.7 kmh 29.94 in1013.9 mb 0.00 in0.0 mm 0.00 in0.0 mm 0.00 in0.0 mm
08:25 AM 70.2°F21.2°C 56.6°F13.7°C 62% 1.6 mph W2.6 kmh W 4.5 mph7.2 kmh 29.94 in1013.9 mb 0.00 in0.0 mm 0.00 in0.0 mm 0.00 in0.0 mm
08:20 AM 70.2°F21.2°C 57.0°F13.9°C 63% 0.7 mph W1.1 kmh W 3.8 mph6.1 kmh 29.95 in1014.2 mb 0.00 in0.0 mm 0.00 in0.0 mm 0.00 in0.0 mm
08:15 AM 69.4°F20.8°C 57.2°F14.0°C 65% 0.7 mph WSW1.1 kmh WSW 4.5 mph7.2 kmh 29.94 in1013.9 mb 0.00 in0.0 mm 0.00 in0.0 mm 0.00 in0.0 mm
08:10 AM 69.1°F20.6°C 57.3°F14.1°C 66% 1.6 mph WSW2.6 kmh WSW 4.5 mph7.2 kmh 29.94 in1013.9 mb 0.00 in0.0 mm 0.00 in0.0 mm 0.00 in0.0 mm
08:05 AM 68.5°F20.3°C 57.2°F14.0°C 67% 1.6 mph W2.6 kmh W 4.5 mph7.2 kmh 29.94 in1013.9 mb 0.00 in0.0 mm 0.00 in0.0 mm 0.00 in0.0 mm
08:00 AM 68.4°F20.2°C 57.0°F13.9°C 67% 1.6 mph W2.6 kmh W 4.5 mph7.2 kmh 29.94 in1013.9 mb 0.00 in0.0 mm 0.00 in0.0 mm 0.00 in0.0 mm
07:55 AM 68.2°F20.1°C 57.6°F14.2°C 69% 2.2 mph W3.5 kmh W 5.4 mph8.7 kmh 29.93 in1013.5 mb 0.00 in0.0 mm 0.00 in0.0 mm 0.00 in0.0 mm
07:50 AM 67.6°F19.8°C 57.9°F14.4°C 71% 2.2 mph WNW3.5 kmh WNW 5.4 mph8.7 kmh 29.93 in1013.5 mb 0.00 in0.0 mm 0.00 in0.0 mm 0.00 in0.0 mm
07:45 AM 67.6°F19.8°C 57.9°F14.4°C 71% 1.6 mph WNW2.6 kmh WNW 5.4 mph8.7 kmh 29.93 in1013.5 mb 0.00 in0.0 mm 0.00 in0.0 mm 0.00 in0.0 mm
07:40 AM 67.1°F19.5°C 57.8°F14.3°C 72% 0.7 mph W1.1 kmh W 5.4 mph8.7 kmh 29.93 in1013.5 mb 0.00 in0.0 mm 0.00 in0.0 mm 0.00 in0.0 mm
07:35 AM 66.7°F19.3°C 57.8°F14.3°C 73% 1.6 mph WNW2.6 kmh WNW 4.5 mph7.2 kmh 29.93 in1013.5 mb 0.00 in0.0 mm 0.00 in0.0 mm 0.00 in0.0 mm
07:30 AM 66.4°F19.1°C 57.9°F14.4°C 74% 1.6 mph W2.6 kmh W 5.4 mph8.7 kmh 29.93 in1013.5 mb 0.00 in0.0 mm 0.00 in0.0 mm 0.00 in0.0 mm
07:25 AM 66.4°F19.1°C 57.9°F14.4°C 74% 2.2 mph WNW3.5 kmh WNW 5.4 mph8.7 kmh 29.93 in1013.5 mb 0.00 in0.0 mm 0.00 in0.0 mm 0.00 in0.0 mm
07:20 AM 66.4°F19.1°C 57.9°F14.4°C 74% 1.6 mph WNW2.6 kmh WNW 5.4 mph8.7 kmh 29.93 in1013.5 mb 0.00 in0.0 mm 0.00 in0.0 mm 0.00 in0.0 mm
07:15 AM 66.4°F19.1°C 57.9°F14.4°C 74% 2.2 mph W3.5 kmh W 7.6 mph12.2 kmh 29.93 in1013.5 mb 0.00 in0.0 mm 0.00 in0.0 mm 0.00 in0.0 mm
07:10 AM 66.4°F19.1°C 57.9°F14.4°C 74% 1.6 mph W2.6 kmh W 7.6 mph12.2 kmh 29.92 in1013.2 mb 0.00 in0.0 mm 0.00 in0.0 mm 0.00 in0.0 mm
07:05 AM 66.4°F19.1°C 57.9°F14.4°C 74% 2.2 mph W3.5 kmh W 6.9 mph11.1 kmh 29.93 in1013.5 mb 0.00 in0.0 mm 0.00 in0.0 mm 0.00 in0.0 mm
07:00 AM 66.4°F19.1°C 58.2°F14.6°C 75% 3.1 mph W5.0 kmh W 5.4 mph8.7 kmh 29.92 in1013.2 mb 0.00 in0.0 mm 0.00 in0.0 mm 0.00 in0.0 mm
06:55 AM 66.4°F19.1°C 58.2°F14.6°C 75% 0.7 mph W1.1 kmh W 4.5 mph7.2 kmh 29.92 in1013.2 mb 0.00 in0.0 mm 0.00 in0.0 mm 0.00 in0.0 mm
06:50 AM 66.4°F19.1°C 58.2°F14.6°C 75% 3.1 mph W5.0 kmh W 6.0 mph9.7 kmh 29.91 in1012.9 mb 0.00 in0.0 mm 0.00 in0.0 mm 0.00 in0.0 mm
06:45 AM 66.4°F19.1°C 58.6°F14.8°C 76% 2.2 mph W3.5 kmh W 6.0 mph9.7 kmh 29.91 in1012.9 mb 0.00 in0.0 mm 0.00 in0.0 mm 0.00 in0.0 mm
06:40 AM 66.4°F19.1°C 58.6°F14.8°C 76% 3.1 mph W5.0 kmh W 6.0 mph9.7 kmh 29.91 in1012.9 mb 0.00 in0.0 mm 0.00 in0.0 mm 0.00 in0.0 mm
06:35 AM 66.4°F19.1°C 58.6°F14.8°C 76% 3.1 mph W5.0 kmh W 6.0 mph9.7 kmh 29.91 in1012.9 mb 0.00 in0.0 mm 0.00 in0.0 mm 0.00 in0.0 mm
06:30 AM 66.7°F19.3°C 59.0°F15.0°C 76% 3.8 mph W6.1 kmh W 6.0 mph9.7 kmh 29.91 in1012.9 mb 0.00 in0.0 mm 0.00 in0.0 mm 0.00 in0.0 mm
06:25 AM 66.7°F19.3°C 59.0°F15.0°C 76% 3.1 mph WNW5.0 kmh WNW 6.0 mph9.7 kmh 29.91 in1012.9 mb 0.00 in0.0 mm 0.00 in0.0 mm 0.00 in0.0 mm
06:20 AM 66.9°F19.4°C 58.8°F14.9°C 75% 1.6 mph W2.6 kmh W 6.0 mph9.7 kmh 29.91 in1012.9 mb 0.00 in0.0 mm 0.00 in0.0 mm 0.00 in0.0 mm
06:15 AM 66.9°F19.4°C 59.1°F15.1°C 76% 2.2 mph W3.5 kmh W 6.0 mph9.7 kmh 29.91 in1012.9 mb 0.00 in0.0 mm 0.00 in0.0 mm 0.00 in0.0 mm
06:10 AM 67.1°F19.5°C 59.3°F15.2°C 76% 1.6 mph WNW2.6 kmh WNW 6.0 mph9.7 kmh 29.91 in1012.9 mb 0.00 in0.0 mm 0.00 in0.0 mm 0.00 in0.0 mm
06:05 AM 66.9°F19.4°C 59.1°F15.1°C 76% 2.2 mph NW3.5 kmh NW 6.0 mph9.7 kmh 29.90 in1012.5 mb 0.00 in0.0 mm 0.00 in0.0 mm 0.00 in0.0 mm
06:00 AM 66.9°F19.4°C 59.1°F15.1°C 76% 3.1 mph NW5.0 kmh NW 6.0 mph9.7 kmh 29.90 in1012.5 mb 0.00 in0.0 mm 0.00 in0.0 mm 0.00 in0.0 mm
05:55 AM 67.3°F19.6°C 59.5°F15.3°C 76% 3.1 mph W5.0 kmh W 6.0 mph9.7 kmh 29.90 in1012.5 mb 0.00 in0.0 mm 0.00 in0.0 mm 0.00 in0.0 mm
05:50 AM 67.1°F19.5°C 59.3°F15.2°C 76% 1.6 mph W2.6 kmh W 5.4 mph8.7 kmh 29.89 in1012.2 mb 0.00 in0.0 mm 0.00 in0.0 mm 0.00 in0.0 mm
05:45 AM 67.1°F19.5°C 59.3°F15.2°C 76% 2.2 mph W3.5 kmh W 6.0 mph9.7 kmh 29.90 in1012.5 mb 0.00 in0.0 mm 0.00 in0.0 mm 0.00 in0.0 mm
05:40 AM 67.3°F19.6°C 59.5°F15.3°C 76% 3.1 mph NW5.0 kmh NW 6.0 mph9.7 kmh 29.89 in1012.2 mb 0.00 in0.0 mm 0.00 in0.0 mm 0.00 in0.0 mm
05:35 AM 67.5°F19.7°C 59.7°F15.4°C 76% 2.2 mph WNW3.5 kmh WNW 6.0 mph9.7 kmh 29.90 in1012.5 mb 0.00 in0.0 mm 0.00 in0.0 mm 0.00 in0.0 mm
05:30 AM 67.6°F19.8°C 60.2°F15.7°C 77% 2.2 mph WNW3.5 kmh WNW 6.0 mph9.7 kmh 29.89 in1012.2 mb 0.00 in0.0 mm 0.00 in0.0 mm 0.00 in0.0 mm
05:25 AM 67.6°F19.8°C 60.2°F15.7°C 77% 2.2 mph NW3.5 kmh NW 6.0 mph9.7 kmh 29.89 in1012.2 mb 0.00 in0.0 mm 0.00 in0.0 mm 0.00 in0.0 mm
05:20 AM 67.6°F19.8°C 60.2°F15.7°C 77% 3.8 mph NW6.1 kmh NW 6.0 mph9.7 kmh 29.89 in1012.2 mb 0.00 in0.0 mm 0.00 in0.0 mm 0.00 in0.0 mm
05:15 AM 67.8°F19.9°C 60.4°F15.8°C 77% 3.8 mph NW6.1 kmh NW 6.9 mph11.1 kmh 29.89 in1012.2 mb 0.00 in0.0 mm 0.00 in0.0 mm 0.00 in0.0 mm
05:10 AM 67.8°F19.9°C 60.4°F15.8°C 77% 3.8 mph NW6.1 kmh NW 6.9 mph11.1 kmh 29.89 in1012.2 mb 0.00 in0.0 mm 0.00 in0.0 mm 0.00 in0.0 mm
05:05 AM 67.8°F19.9°C 60.4°F15.8°C 77% 3.1 mph NW5.0 kmh NW 6.0 mph9.7 kmh 29.89 in1012.2 mb 0.00 in0.0 mm 0.00 in0.0 mm 0.00 in0.0 mm
05:00 AM 67.8°F19.9°C 60.4°F15.8°C 77% 3.1 mph WNW5.0 kmh WNW 6.0 mph9.7 kmh 29.89 in1012.2 mb 0.00 in0.0 mm 0.00 in0.0 mm 0.00 in0.0 mm
04:55 AM 67.8°F19.9°C 60.4°F15.8°C 77% 3.1 mph WNW5.0 kmh WNW 6.0 mph9.7 kmh 29.89 in1012.2 mb 0.00 in0.0 mm 0.00 in0.0 mm 0.00 in0.0 mm
04:50 AM 68.0°F20.0°C 60.2°F15.7°C 76% 3.1 mph WNW5.0 kmh WNW 6.0 mph9.7 kmh 29.89 in1012.2 mb 0.00 in0.0 mm 0.00 in0.0 mm 0.00 in0.0 mm
04:45 AM 68.2°F20.1°C 60.4°F15.8°C 76% 2.2 mph WNW3.5 kmh WNW 6.9 mph11.1 kmh 29.89 in1012.2 mb 0.00 in0.0 mm 0.00 in0.0 mm 0.00 in0.0 mm
04:40 AM 68.2°F20.1°C 60.7°F15.9°C 77% 4.5 mph WNW7.2 kmh WNW 6.9 mph11.1 kmh 29.89 in1012.2 mb 0.00 in0.0 mm 0.00 in0.0 mm 0.00 in0.0 mm
04:35 AM 68.4°F20.2°C 60.5°F15.8°C 76% 3.8 mph WNW6.1 kmh WNW 6.9 mph11.1 kmh 29.89 in1012.2 mb 0.00 in0.0 mm 0.00 in0.0 mm 0.00 in0.0 mm
04:30 AM 68.5°F20.3°C 60.7°F15.9°C 76% 4.5 mph WNW7.2 kmh WNW 6.9 mph11.1 kmh 29.89 in1012.2 mb 0.00 in0.0 mm 0.00 in0.0 mm 0.00 in0.0 mm
04:25 AM 68.5°F20.3°C 60.7°F15.9°C 76% 3.8 mph WNW6.1 kmh WNW 6.9 mph11.1 kmh 29.89 in1012.2 mb 0.00 in0.0 mm 0.00 in0.0 mm 0.00 in0.0 mm
04:20 AM 68.5°F20.3°C 60.7°F15.9°C 76% 3.1 mph W5.0 kmh W 6.9 mph11.1 kmh 29.89 in1012.2 mb 0.00 in0.0 mm 0.00 in0.0 mm 0.00 in0.0 mm
04:15 AM 68.5°F20.3°C 60.3°F15.7°C 75% 3.8 mph W6.1 kmh W 6.9 mph11.1 kmh 29.89 in1012.2 mb 0.00 in0.0 mm 0.00 in0.0 mm 0.00 in0.0 mm
04:10 AM 68.5°F20.3°C 60.3°F15.7°C 75% 3.8 mph WNW6.1 kmh WNW 6.0 mph9.7 kmh 29.89 in1012.2 mb 0.00 in0.0 mm 0.00 in0.0 mm 0.00 in0.0 mm
04:05 AM 68.4°F20.2°C 60.2°F15.7°C 75% 3.8 mph WNW6.1 kmh WNW 6.0 mph9.7 kmh 29.89 in1012.2 mb 0.00 in0.0 mm 0.00 in0.0 mm 0.00 in0.0 mm
04:00 AM 68.4°F20.2°C 59.8°F15.4°C 74% 3.8 mph WNW6.1 kmh WNW 6.0 mph9.7 kmh 29.89 in1012.2 mb 0.00 in0.0 mm 0.00 in0.0 mm 0.00 in0.0 mm
03:55 AM 68.5°F20.3°C 59.6°F15.3°C 73% 3.1 mph WNW5.0 kmh WNW 5.4 mph8.7 kmh 29.90 in1012.5 mb 0.00 in0.0 mm 0.00 in0.0 mm 0.00 in0.0 mm
03:50 AM 68.5°F20.3°C 59.2°F15.1°C 72% 3.8 mph NW6.1 kmh NW 4.5 mph7.2 kmh 29.90 in1012.5 mb 0.00 in0.0 mm 0.00 in0.0 mm 0.00 in0.0 mm
03:45 AM 68.7°F20.4°C 59.0°F15.0°C 71% 2.2 mph NW3.5 kmh NW 6.9 mph11.1 kmh 29.89 in1012.2 mb 0.00 in0.0 mm 0.00 in0.0 mm 0.00 in0.0 mm
03:40 AM 68.7°F20.4°C 59.0°F15.0°C 71% 2.2 mph NW3.5 kmh NW 6.9 mph11.1 kmh 29.89 in1012.2 mb 0.00 in0.0 mm 0.00 in0.0 mm 0.00 in0.0 mm
03:35 AM 69.1°F20.6°C 58.9°F14.9°C 70% 5.4 mph NW8.7 kmh NW 6.9 mph11.1 kmh 29.90 in1012.5 mb 0.00 in0.0 mm 0.00 in0.0 mm 0.00 in0.0 mm
03:30 AM 69.3°F20.7°C 59.1°F15.1°C 70% 5.4 mph NW8.7 kmh NW 6.0 mph9.7 kmh 29.89 in1012.2 mb 0.00 in0.0 mm 0.00 in0.0 mm 0.00 in0.0 mm
03:25 AM 69.3°F20.7°C 59.1°F15.1°C 70% 4.5 mph NW7.2 kmh NW 6.9 mph11.1 kmh 29.89 in1012.2 mb 0.00 in0.0 mm 0.00 in0.0 mm 0.00 in0.0 mm
03:20 AM 69.3°F20.7°C 59.1°F15.1°C 70% 3.8 mph NW6.1 kmh NW 6.9 mph11.1 kmh 29.90 in1012.5 mb 0.00 in0.0 mm 0.00 in0.0 mm 0.00 in0.0 mm
03:15 AM 69.3°F20.7°C 58.7°F14.8°C 69% 4.5 mph NW7.2 kmh NW 6.0 mph9.7 kmh 29.89 in1012.2 mb 0.00 in0.0 mm 0.00 in0.0 mm 0.00 in0.0 mm
03:10 AM 69.3°F20.7°C 58.7°F14.8°C 69% 4.5 mph NW7.2 kmh NW 6.0 mph9.7 kmh 29.90 in1012.5 mb 0.00 in0.0 mm 0.00 in0.0 mm 0.00 in0.0 mm
03:05 AM 69.3°F20.7°C 58.7°F14.8°C 69% 3.8 mph NW6.1 kmh NW 6.9 mph11.1 kmh 29.90 in1012.5 mb 0.00 in0.0 mm 0.00 in0.0 mm 0.00 in0.0 mm
03:00 AM 69.3°F20.7°C 58.3°F14.6°C 68% 3.8 mph NW6.1 kmh NW 6.9 mph11.1 kmh 29.90 in1012.5 mb 0.00 in0.0 mm 0.00 in0.0 mm 0.00 in0.0 mm
02:55 AM 69.6°F20.9°C 58.6°F14.8°C 68% 4.5 mph NW7.2 kmh NW 6.0 mph9.7 kmh 29.90 in1012.5 mb 0.00 in0.0 mm 0.00 in0.0 mm 0.00 in0.0 mm
02:50 AM 69.6°F20.9°C 58.6°F14.8°C 68% 3.8 mph NW6.1 kmh NW 5.4 mph8.7 kmh 29.90 in1012.5 mb 0.00 in0.0 mm 0.00 in0.0 mm 0.00 in0.0 mm
02:45 AM 69.6°F20.9°C 58.2°F14.6°C 67% 2.2 mph NW3.5 kmh NW 6.0 mph9.7 kmh 29.90 in1012.5 mb 0.00 in0.0 mm 0.00 in0.0 mm 0.00 in0.0 mm
02:40 AM 69.8°F21.0°C 58.0°F14.4°C 66% 3.8 mph NW6.1 kmh NW 6.0 mph9.7 kmh 29.89 in1012.2 mb 0.00 in0.0 mm 0.00 in0.0 mm 0.00 in0.0 mm
02:35 AM 69.8°F21.0°C 58.0°F14.4°C 66% 3.1 mph NW5.0 kmh NW 5.4 mph8.7 kmh 29.90 in1012.5 mb 0.00 in0.0 mm 0.00 in0.0 mm 0.00 in0.0 mm
02:30 AM 69.8°F21.0°C 57.5°F14.2°C 65% 3.1 mph NW5.0 kmh NW 7.6 mph12.2 kmh 29.90 in1012.5 mb 0.00 in0.0 mm 0.00 in0.0 mm 0.00 in0.0 mm
02:25 AM 70.0°F21.1°C 57.7°F14.3°C 65% 3.8 mph NW6.1 kmh NW 7.6 mph12.2 kmh 29.90 in1012.5 mb 0.00 in0.0 mm 0.00 in0.0 mm 0.00 in0.0 mm
02:20 AM 70.0°F21.1°C 57.3°F14.1°C 64% 3.8 mph NW6.1 kmh NW 6.0 mph9.7 kmh 29.90 in1012.5 mb 0.00 in0.0 mm 0.00 in0.0 mm 0.00 in0.0 mm
02:15 AM 70.0°F21.1°C 57.3°F14.1°C 64% 4.5 mph NW7.2 kmh NW 6.0 mph9.7 kmh 29.90 in1012.5 mb 0.00 in0.0 mm 0.00 in0.0 mm 0.00 in0.0 mm
02:10 AM 70.2°F21.2°C 57.4°F14.1°C 64% 3.8 mph NW6.1 kmh NW 6.0 mph9.7 kmh 29.90 in1012.5 mb 0.00 in0.0 mm 0.00 in0.0 mm 0.00 in0.0 mm
02:05 AM 70.0°F21.1°C 57.7°F14.3°C 65% 5.4 mph NW8.7 kmh NW 6.0 mph9.7 kmh 29.90 in1012.5 mb 0.00 in0.0 mm 0.00 in0.0 mm 0.00 in0.0 mm
02:00 AM 70.0°F21.1°C 57.7°F14.3°C 65% 3.8 mph NW6.1 kmh NW 7.6 mph12.2 kmh 29.90 in1012.5 mb 0.00 in0.0 mm 0.00 in0.0 mm 0.00 in0.0 mm
01:55 AM 70.2°F21.2°C 57.9°F14.4°C 65% 3.8 mph NW6.1 kmh NW 7.6 mph12.2 kmh 29.90 in1012.5 mb 0.00 in0.0 mm 0.00 in0.0 mm 0.00 in0.0 mm
01:50 AM 70.2°F21.2°C 57.9°F14.4°C 65% 3.8 mph NW6.1 kmh NW 6.0 mph9.7 kmh 29.90 in1012.5 mb 0.00 in0.0 mm 0.00 in0.0 mm 0.00 in0.0 mm
01:45 AM 70.0°F21.1°C 57.7°F14.3°C 65% 3.8 mph NW6.1 kmh NW 10.7 mph17.2 kmh 29.90 in1012.5 mb 0.00 in0.0 mm 0.00 in0.0 mm 0.00 in0.0 mm
01:40 AM 70.0°F21.1°C 57.7°F14.3°C 65% 2.2 mph NW3.5 kmh NW 10.7 mph17.2 kmh 29.90 in1012.5 mb 0.00 in0.0 mm 0.00 in0.0 mm 0.00 in0.0 mm
01:35 AM 70.5°F21.4°C 58.2°F14.6°C 65% 7.6 mph NW12.2 kmh NW 10.7 mph17.2 kmh 29.90 in1012.5 mb 0.00 in0.0 mm 0.00 in0.0 mm 0.00 in0.0 mm
01:30 AM 70.3°F21.3°C 58.5°F14.7°C 66% 5.4 mph NW8.7 kmh NW 7.6 mph12.2 kmh 29.90 in1012.5 mb 0.00 in0.0 mm 0.00 in0.0 mm 0.00 in0.0 mm
01:25 AM 70.0°F21.1°C 58.1°F14.5°C 66% 3.1 mph NW5.0 kmh NW 7.6 mph12.2 kmh 29.90 in1012.5 mb 0.00 in0.0 mm 0.00 in0.0 mm 0.00 in0.0 mm
01:20 AM 70.3°F21.3°C 58.9°F14.9°C 67% 4.5 mph NW7.2 kmh NW 7.6 mph12.2 kmh 29.89 in1012.2 mb 0.00 in0.0 mm 0.00 in0.0 mm 0.00 in0.0 mm
01:15 AM 70.0°F21.1°C 58.5°F14.7°C 67% 4.5 mph NNW7.2 kmh NNW 7.6 mph12.2 kmh 29.89 in1012.2 mb 0.00 in0.0 mm 0.00 in0.0 mm 0.00 in0.0 mm
01:10 AM 70.2°F21.2°C 58.7°F14.8°C 67% 3.8 mph NNW6.1 kmh NNW 7.6 mph12.2 kmh 29.89 in1012.2 mb 0.00 in0.0 mm 0.00 in0.0 mm 0.00 in0.0 mm
01:05 AM 70.3°F21.3°C 58.9°F14.9°C 67% 3.1 mph NNW5.0 kmh NNW 9.8 mph15.8 kmh 29.89 in1012.2 mb 0.00 in0.0 mm 0.00 in0.0 mm 0.00 in0.0 mm
01:00 AM 70.3°F21.3°C 58.9°F14.9°C 67% 3.8 mph NNW6.1 kmh NNW 13.0 mph20.9 kmh 29.89 in1012.2 mb 0.00 in0.0 mm 0.00 in0.0 mm 0.00 in0.0 mm
12:55 AM 70.5°F21.4°C 58.6°F14.8°C 66% 6.9 mph N11.1 kmh N 13.0 mph20.9 kmh 29.88 in1011.9 mb 0.00 in0.0 mm 0.00 in0.0 mm 0.00 in0.0 mm
12:50 AM 70.7°F21.5°C 58.4°F14.7°C 65% 9.8 mph N15.8 kmh N 13.0 mph20.9 kmh 29.89 in1012.2 mb 0.00 in0.0 mm 0.00 in0.0 mm 0.00 in0.0 mm
12:45 AM 70.7°F21.5°C 58.4°F14.7°C 65% 8.3 mph NNW13.4 kmh NNW 13.0 mph20.9 kmh 29.88 in1011.9 mb 0.00 in0.0 mm 0.00 in0.0 mm 0.00 in0.0 mm
12:40 AM 70.7°F21.5°C 58.0°F14.4°C 64% 10.7 mph NW17.2 kmh NW 13.0 mph20.9 kmh 29.88 in1011.9 mb 0.00 in0.0 mm 0.00 in0.0 mm 0.00 in0.0 mm
12:35 AM 71.1°F21.7°C 58.3°F14.6°C 64% 6.0 mph NNW9.7 kmh NNW 9.8 mph15.8 kmh 29.88 in1011.9 mb 0.00 in0.0 mm 0.00 in0.0 mm 0.00 in0.0 mm
12:30 AM 71.1°F21.7°C 57.9°F14.4°C 63% 4.5 mph NNW7.2 kmh NNW 9.8 mph15.8 kmh 29.88 in1011.9 mb 0.00 in0.0 mm 0.00 in0.0 mm 0.00 in0.0 mm
12:25 AM 71.2°F21.8°C 58.0°F14.4°C 63% 5.4 mph NNW8.7 kmh NNW 9.8 mph15.8 kmh 29.88 in1011.9 mb 0.00 in0.0 mm 0.00 in0.0 mm 0.00 in0.0 mm
12:20 AM 71.2°F21.8°C 58.0°F14.4°C 63% 5.4 mph NNW8.7 kmh NNW 9.8 mph15.8 kmh 29.88 in1011.9 mb 0.00 in0.0 mm 0.00 in0.0 mm 0.00 in0.0 mm
12:15 AM 71.2°F21.8°C 58.0°F14.4°C 63% 5.4 mph NNW8.7 kmh NNW 10.7 mph17.2 kmh 29.88 in1011.9 mb 0.00 in0.0 mm 0.00 in0.0 mm 0.00 in0.0 mm
12:10 AM 71.2°F21.8°C 58.5°F14.7°C 64% 6.0 mph N9.7 kmh N 10.7 mph17.2 kmh 29.88 in1011.9 mb 0.00 in0.0 mm 0.00 in0.0 mm 0.00 in0.0 mm
12:05 AM 71.2°F21.8°C 58.5°F14.7°C 64% 6.0 mph N9.7 kmh N 9.8 mph15.8 kmh 29.88 in1011.9 mb 0.00 in0.0 mm 0.00 in0.0 mm 0.00 in0.0 mm
12:00 AM 71.2°F21.8°C 58.5°F14.7°C 64% 4.5 mph N7.2 kmh N 12.1 mph19.5 kmh 29.87 in1011.5 mb 0.00 in0.0 mm 0.00 in0.0 mm 0.00 in0.0 mm